Weather at Bundaberg Airport

Public forecast

Using degrees Celsius for public forecast. Weather courtesy of forecast.io.

Closest aviation weather report (METAR) to Bundaberg Airport

Closest report is Gladstone Airport, 86.4 nm (160.0 km) NW.

2024/05/22 23:00 (retrieved 20 minutes ago)

YGLA 222300Z AUTO 15012KT 9999 // NCD 21/15 Q1023 RF000/////

Closest aviation forecast (TAF) to Bundaberg Airport

Closest forecast is Gladstone Airport, 86.4 nm (160.0 km) NW.

2024/05/22 18:00 (retrieved 5 hours ago)

TAF YGLA 221706Z 2218/2306 18008KT 9999 FEW020 FM222300 10013KT CAVOK